ADDS METAR Data INFO
IDs: Format: Raw Decoded Include TAF

Data at: 0501 UTC 23 May 2017

KDTO 230453Z AUTO 14008KT 10SM CLR 19/17 A2992 RMK AO2 LTG DSNT NW SLP123 T01940167
KDTO 230353Z AUTO 16008KT 10SM CLR 21/16 A2992 RMK AO2 SLP124 T02060161
KDTO 230253Z 12009KT 10SM FEW070 22/16 A2990 RMK AO2 SLP118 T02220161 58001
KDTO 230153Z 15005KT 10SM BKN070 22/16 A2991 RMK AO2 SLP123 T02220161
KDTO 230053Z 11003KT 10SM OVC065 23/16 A2990 RMK AO2 SLP119 T02330156
KDTO 222353Z 11006KT 10SM SCT045 OVC060 24/16 A2991 RMK AO2 SLP121 T02390161 10261 20233 56019
KDTO 222253Z VRB03KT 10SM SCT044 OVC060 26/16 A2992 RMK AO2 SLP124 T02560156
KDTO 222153Z 08004KT 10SM BKN055 26/16 A2994 RMK AO2 SLP130 T02560156
KDTO 222053Z 09004KT 10SM BKN041 OVC049 24/16 A2996 RMK AO2 SLP140 T02440156 56025
KDTO 221953Z VRB04KT 10SM OVC042 25/16 A2997 RMK AO2 SLP143 T02500156
KDTO 221853Z 14004KT 10SM OVC035 23/16 A3000 RMK AO2 SLP153 T02330156
KDTO 221753Z 09005KT 10SM OVC032 23/16 A3004 RMK AO2 SLP164 T02330156 10233 20167 56017
KDTO 221748Z VRB05KT 10SM BKN030 23/16 A3004 RMK AO2
KDTO 221653Z VRB05KT 10SM OVC026 22/16 A3007 RMK AO2 SLP174 T02220156
KDTO 221553Z VRB03KT 10SM BKN018 22/16 A3009 RMK AO2 SLP182 T02170156
KDTO 221513Z 13004KT 10SM BKN018 21/16 A3009 RMK AO2 T02060156
KDTO 221453Z 13007KT 10SM SCT018 21/16 A3008 RMK AO2 SLP181 T02060156 50002
KDTO 221440Z 07004KT 10SM SCT018 19/15 A3009 RMK AO2 T01940150
KDTO 221353Z 12007KT 10SM FEW015 BKN019 18/16 A3009 RMK AO2 SLP181 T01830161
KDTO 221253Z 00000KT 10SM BKN019 17/16 A3009 RMK AO2 SLP182 T01670161
KDTO 221203Z 14003KT 10SM BKN021 16/15 A3008 RMK AO2 T01560150
KDTO 221153Z 00000KT 10SM SCT021 15/14 A3008 RMK AO2 SLP180 60000 70003 T01500144 10200 20150 58007
KDTO 221115Z 00000KT 10SM SCT023 16/14 A3009 RMK AO2 T01560144
KDTO 221103Z 00000KT 10SM BKN023 16/15 A3008 RMK AO2 T01560150
KDTO 221053Z 00000KT 10SM SCT024 16/15 A3009 RMK AO2 SLP182 T01560150
KDTO 220953Z AUTO 21003KT 10SM CLR 16/16 A3009 RMK AO2 SLP184 T01610156
KDTO 220853Z AUTO 00000KT 10SM CLR 17/16 A3010 RMK AO2 SLP185 60000 T01720161 58007
KDTO 220753Z AUTO 24004KT 10SM CLR 17/16 A3011 RMK AO2 RAE21 SLP188 P0000 T01720156
KDTO 220653Z AUTO 00000KT 10SM -RA FEW085 BKN120 19/13 A3011 RMK AO2 RAE0558B42 SLP189 P0000 T01890133
KDTO 220553Z AUTO 05005KT 10SM -RA SCT075 BKN090 BKN110 19/13 A3012 RMK AO2 RAB48 SLP192 P0000 60000 T01940128 10239 20189 402610150 50007
KDTO 220453Z AUTO 09004KT 10SM BKN075 21/12 A3013 RMK AO2 LTG DSNT S SLP195 T02060122
KDTO 220353Z AUTO 05005KT 10SM SCT120 21/12 A3012 RMK AO2 SLP192 T02060117
KDTO 220253Z 04007KT 10SM CLR 21/12 A3010 RMK AO2 SLP186 T02060117 53003
KDTO 220153Z 05005KT 10SM BKN120 21/11 A3009 RMK AO2 SLP184 T02110111
KDTO 220053Z 04007KT 10SM CLR 22/11 A3007 RMK AO2 SLP177 T02220111
KDTO 212353Z 05009KT 10SM CLR 24/10 A3009 RMK AO2 SLP183 T02390100 10261 20239 56007
KDTO 212253Z 06008KT 10SM CLR 25/10 A3009 RMK AO2 SLP183 T02500100
KDTO 212153Z 08008KT 10SM SCT110 26/12 A3009 RMK AO2 SLP182 T02610122
KDTO 212053Z 07009KT 10SM FEW110 26/12 A3011 RMK AO2 SLP189 T02560117 56013
KDTO 211953Z 05012KT 10SM SCT110 26/11 A3012 RMK AO2 SLP193 T02560106
KDTO 211853Z 06008KT 10SM FEW110 25/11 A3013 RMK AO2 SLP198 T02500106
KDTO 211753Z 03009G20KT 10SM FEW120 24/10 A3015 RMK AO2 SLP204 60003 T02390100 10244 20150 58009


Page loaded:  05:01 UTC  |   10:01 PM Pacific  |   11:01 PM Mountain  |   12:01 AM Central  |   01:01 AM Eastern

 

ADVISORIES

FORECASTS

FORECASTS

OBSERVATIONS

USER TOOLS

ABOUT US